Time;durP1;ratioP1;P1;durP2;ratioP2;P2;SDS_P1;SDS_P2;PMS_P1;PMS_P2;Temp;Humidity;BMP_temperature;BMP_pressure;BME280_temperature;BME280_humidity;BME280_pressure;Samples;Min_cycle;Max_cycle;Signal;HPM_P1;HPM_P2
2020/12/11 00:00:17;;;;;;;41.93;17.50;;;;;;;-2.22;100.00;100199.94;5006105;28;20053;-67
2020/12/11 00:02:43;;;;;;;40.60;17.30;;;;;;;-2.21;100.00;100195.66;5006394;28;20046;-67
2020/12/11 00:05:09;;;;;;;50.07;19.33;;;;;;;-2.19;100.00;100197.44;5008077;28;20053;-67
2020/12/11 00:07:40;;;;;;;38.70;18.53;;;;;;;-2.23;100.00;100193.03;5007813;28;20086;-67
2020/12/11 00:10:13;;;;;;;39.00;17.97;;;;;;;-2.23;100.00;100187.84;5006399;28;20100;-67
2020/12/11 00:12:39;;;;;;;45.17;20.23;;;;;;;-2.25;100.00;100186.09;5005862;28;20502;-67
2020/12/11 00:15:06;;;;;;;54.17;19.53;;;;;;;-2.25;100.00;100180.91;5006726;28;20057;-68
2020/12/11 00:17:33;;;;;;;44.73;17.93;;;;;;;-2.22;100.00;100179.25;5007397;28;20385;-67
2020/12/11 00:19:59;;;;;;;42.07;16.90;;;;;;;-2.19;100.00;100181.03;5000189;28;20054;-67
2020/12/11 00:22:25;;;;;;;49.70;18.87;;;;;;;-2.20;100.00;100169.81;5008693;28;20033;-67
2020/12/11 00:24:52;;;;;;;52.20;17.67;;;;;;;-2.15;100.00;100172.50;5009165;28;20037;-67
2020/12/11 00:27:19;;;;;;;48.43;19.67;;;;;;;-2.15;100.00;100172.50;5006889;28;20392;-67
2020/12/11 00:29:45;;;;;;;46.77;17.97;;;;;;;-2.19;100.00;100166.38;5007964;28;20045;-67
2020/12/11 00:32:11;;;;;;;45.40;20.00;;;;;;;-2.19;100.00;100168.97;5006568;28;20053;-67
2020/12/11 00:34:38;;;;;;;47.50;18.80;;;;;;;-2.17;100.00;100177.66;4992516;28;20034;-67
2020/12/11 00:37:07;;;;;;;48.63;20.57;;;;;;;-2.15;100.00;100170.78;5007426;28;20395;-67
2020/12/11 00:39:33;;;;;;;48.33;18.47;;;;;;;-2.14;100.00;100169.94;5025796;23;20481;-67
2020/12/11 00:42:00;;;;;;;48.73;18.57;;;;;;;-2.15;100.00;100167.34;5008215;28;20407;-69
2020/12/11 00:44:26;;;;;;;46.87;18.23;;;;;;;-2.13;100.00;100171.69;4987324;28;20450;-69
2020/12/11 00:46:52;;;;;;;43.53;19.00;;;;;;;-2.13;100.00;100174.28;5009596;28;20495;-69
2020/12/11 00:49:18;;;;;;;50.83;19.67;;;;;;;-2.17;100.00;100167.31;5008105;28;20405;-70
2020/12/11 00:51:45;;;;;;;41.83;18.20;;;;;;;-2.17;100.00;100163.84;5003886;28;20046;-69
2020/12/11 00:54:11;;;;;;;45.40;19.10;;;;;;;-2.17;100.00;100163.84;5008540;28;20594;-69
2020/12/11 00:56:37;;;;;;;43.67;18.93;;;;;;;-2.16;100.00;100163.88;5015493;28;20166;-69
2020/12/11 00:59:04;;;;;;;50.43;18.67;;;;;;;-2.16;100.00;100163.00;4992558;28;20129;-69
2020/12/11 01:01:35;;;;;;;48.23;19.23;;;;;;;-2.15;100.00;100167.34;5007488;28;20112;-69
2020/12/11 01:04:03;;;;;;;48.67;18.87;;;;;;;-2.14;100.00;100161.31;5007686;28;20038;-69
2020/12/11 01:06:29;;;;;;;46.80;17.53;;;;;;;-2.14;100.00;100156.13;5007897;28;20304;-69
2020/12/11 01:08:55;;;;;;;46.97;18.50;;;;;;;-2.10;100.00;100155.34;5006565;28;20042;-69
2020/12/11 01:11:21;;;;;;;46.00;17.87;;;;;;;-2.14;100.00;100156.13;5008668;28;20061;-69
2020/12/11 01:13:47;;;;;;;44.70;17.53;;;;;;;-2.14;100.00;100157.00;5014476;28;20128;-68
2020/12/11 01:16:13;;;;;;;43.90;18.03;;;;;;;-2.13;100.00;100155.28;5038970;28;20042;-69
2020/12/11 01:18:40;;;;;;;58.17;20.27;;;;;;;-2.12;100.00;100146.69;5007433;28;20065;-69
2020/12/11 01:21:06;;;;;;;37.13;16.37;;;;;;;-2.10;100.00;100151.09;5010537;28;20045;-70
2020/12/11 01:23:32;;;;;;;45.07;17.57;;;;;;;-2.06;100.00;100146.84;5010147;28;20052;-70
2020/12/11 01:25:58;;;;;;;52.53;18.97;;;;;;;-2.06;100.00;100139.06;5007470;28;20045;-69
2020/12/11 01:28:24;;;;;;;49.67;20.77;;;;;;;-2.08;100.00;100139.03;5012068;28;20502;-69
2020/12/11 01:30:50;;;;;;;45.63;19.10;;;;;;;-2.10;100.00;100135.56;5006471;28;20096;-70
2020/12/11 01:33:17;;;;;;;45.37;19.03;;;;;;;-2.10;100.00;100132.06;5010019;28;20056;-69
2020/12/11 01:35:44;;;;;;;43.93;17.83;;;;;;;-2.10;100.00;100140.72;5008797;28;20037;-69
2020/12/11 01:38:10;;;;;;;48.70;19.00;;;;;;;-1.99;100.00;100139.25;5006566;28;20088;-69
2020/12/11 01:40:37;;;;;;;42.23;17.37;;;;;;;-2.10;100.00;100132.06;5005229;28;20046;-69
2020/12/11 01:43:03;;;;;;;48.23;18.27;;;;;;;-2.09;100.00;100131.25;5010792;28;20061;-69
2020/12/11 01:45:29;;;;;;;48.47;20.20;;;;;;;-2.15;100.00;100133.69;5025096;28;20111;-70
2020/12/11 01:47:57;;;;;;;43.47;18.17;;;;;;;-2.19;100.00;100135.31;5006784;28;20095;-69
2020/12/11 01:50:23;;;;;;;40.93;16.07;;;;;;;-2.17;100.00;100138.84;5007111;28;20037;-69
2020/12/11 01:52:50;;;;;;;50.27;18.67;;;;;;;-2.16;100.00;100144.88;5006812;28;20088;-69
2020/12/11 01:55:16;;;;;;;40.77;16.70;;;;;;;-2.11;100.00;100133.78;5009511;28;20037;-69
2020/12/11 01:58:00;;;;;;;45.30;17.30;;;;;;;-2.15;100.00;100131.09;5008478;28;20038;-69
2020/12/11 02:00:27;;;;;;;38.30;15.03;;;;;;;-2.16;100.00;100130.22;5004693;28;20088;-69
2020/12/11 02:03:05;;;;;;;36.30;15.33;;;;;;;-2.14;100.00;100125.09;5006767;28;20042;-69
2020/12/11 02:05:31;;;;;;;44.87;17.07;;;;;;;-2.15;100.00;100131.09;5000949;28;20038;-69
2020/12/11 02:07:58;;;;;;;46.33;18.27;;;;;;;-2.15;100.00;100125.94;5008108;28;20041;-69
2020/12/11 02:10:25;;;;;;;43.83;19.33;;;;;;;-2.15;100.00;100121.63;5005591;28;20034;-69
2020/12/11 02:12:51;;;;;;;43.10;18.10;;;;;;;-2.11;100.00;100122.56;5023205;28;20099;-69
2020/12/11 02:15:17;;;;;;;39.50;16.50;;;;;;;-2.15;100.00;100121.63;5007603;28;20048;-70
2020/12/11 02:17:43;;;;;;;40.20;16.07;;;;;;;-2.15;100.00;100118.16;5006539;28;20044;-69
2020/12/11 02:20:10;;;;;;;41.73;17.00;;;;;;;-2.13;100.00;100121.66;5005259;28;20127;-69
2020/12/11 02:22:36;;;;;;;44.30;17.63;;;;;;;-2.12;100.00;100111.34;5014584;28;20620;-69
2020/12/11 02:25:03;;;;;;;43.00;16.20;;;;;;;-2.13;100.00;100106.13;5022112;28;20053;-69
2020/12/11 02:27:29;;;;;;;48.33;16.57;;;;;;;-2.12;100.00;100106.16;5012136;28;20097;-69
2020/12/11 02:29:55;;;;;;;34.27;14.07;;;;;;;-2.11;100.00;100107.03;5007178;28;20042;-69
2020/12/11 02:32:21;;;;;;;41.53;17.03;;;;;;;-2.10;100.00;100098.41;5010776;28;20084;-69
2020/12/11 02:34:48;;;;;;;47.07;18.23;;;;;;;-2.07;100.00;100091.63;5011541;28;20042;-69
2020/12/11 02:37:14;;;;;;;45.37;18.07;;;;;;;-2.11;100.00;100089.78;5006118;28;20564;-69
2020/12/11 02:39:40;;;;;;;46.70;18.07;;;;;;;-2.08;100.00;100089.00;5007127;28;20038;-69
2020/12/11 02:42:07;;;;;;;41.43;16.67;;;;;;;-2.08;100.00;100089.88;5007104;28;20034;-69
2020/12/11 02:44:34;;;;;;;42.53;17.43;;;;;;;-2.09;100.00;100085.53;5005513;28;20085;-70
2020/12/11 02:47:00;;;;;;;37.67;15.73;;;;;;;-2.10;100.00;100094.16;4982166;28;20741;-69
2020/12/11 02:49:26;;;;;;;43.27;16.10;;;;;;;-2.09;100.00;100097.59;5006062;28;20049;-69
2020/12/11 02:51:52;;;;;;;43.37;17.47;;;;;;;-2.12;100.00;100100.09;5007494;28;20057;-69
2020/12/11 02:54:19;;;;;;;39.37;17.10;;;;;;;-2.14;100.00;100096.63;5011199;28;20037;-69
2020/12/11 02:56:45;;;;;;;44.23;17.07;;;;;;;-2.15;100.00;100090.56;5011359;28;20398;-69
2020/12/11 02:59:11;;;;;;;46.37;18.50;;;;;;;-2.14;100.00;100092.31;5010528;28;20045;-69
2020/12/11 03:01:42;;;;;;;39.60;17.30;;;;;;;-2.14;100.00;100089.72;5009813;28;20073;-69
2020/12/11 03:04:09;;;;;;;46.40;19.03;;;;;;;-2.14;100.00;100079.38;5002297;28;20040;-69
2020/12/11 03:06:35;;;;;;;46.03;18.60;;;;;;;-2.15;100.00;100081.94;5029562;28;20034;-67
2020/12/11 03:09:02;;;;;;;54.43;18.37;;;;;;;-2.15;100.00;100076.75;5033954;28;20046;-67
2020/12/11 03:11:28;;;;;;;45.30;18.83;;;;;;;-2.15;100.00;100071.59;5042638;28;20042;-67
2020/12/11 03:13:54;;;;;;;46.63;18.20;;;;;;;-2.10;100.00;100065.69;5010614;28;20081;-69
2020/12/11 03:16:21;;;;;;;53.47;17.87;;;;;;;-2.14;100.00;100063.84;5009067;28;20465;-69
2020/12/11 03:18:48;;;;;;;43.97;17.83;;;;;;;-2.15;100.00;100054.34;5009661;28;20040;-69
2020/12/11 03:21:15;;;;;;;44.83;19.03;;;;;;;-2.15;100.00;100050.88;5008532;28;20030;-69
2020/12/11 03:23:41;;;;;;;47.00;18.50;;;;;;;-2.18;100.00;100053.41;5010629;28;20034;-69
2020/12/11 03:26:08;;;;;;;42.13;18.37;;;;;;;-2.15;100.00;100054.34;5009651;28;20515;-69
2020/12/11 03:28:34;;;;;;;41.97;16.93;;;;;;;-2.16;100.00;100054.31;5006700;28;20034;-69
2020/12/11 03:31:00;;;;;;;45.53;18.23;;;;;;;-2.17;100.00;100052.56;5007579;28;20077;-69
2020/12/11 03:33:27;;;;;;;45.63;18.07;;;;;;;-2.15;100.00;100043.13;4998679;28;20026;-70
2020/12/11 03:35:53;;;;;;;45.20;17.13;;;;;;;-2.14;100.00;100050.03;5025843;28;20046;-69
2020/12/11 03:38:20;;;;;;;41.87;16.43;;;;;;;-2.12;100.00;100051.81;4992234;28;20042;-68
2020/12/11 03:40:47;;;;;;;48.57;19.33;;;;;;;-2.13;100.00;100052.66;5003255;28;20398;-69
2020/12/11 03:43:13;;;;;;;44.97;17.50;;;;;;;-2.11;100.00;100044.91;5013190;28;20041;-67
2020/12/11 03:45:40;;;;;;;52.77;18.67;;;;;;;-2.13;100.00;100044.88;5013453;28;20096;-68
2020/12/11 03:48:06;;;;;;;48.83;18.67;;;;;;;-2.14;100.00;100053.50;5015239;28;20037;-67
2020/12/11 03:50:33;;;;;;;43.10;17.00;;;;;;;-2.10;100.00;100044.97;5010664;28;20050;-67
2020/12/11 03:52:59;;;;;;;58.67;20.53;;;;;;;-2.13;100.00;100046.59;5023629;28;20041;-69
2020/12/11 03:55:25;;;;;;;46.10;19.00;;;;;;;-2.12;100.00;100038.00;5010552;28;20092;-69
2020/12/11 03:57:51;;;;;;;49.93;19.10;;;;;;;-2.11;100.00;100039.75;5031111;28;20121;-69
2020/12/11 04:00:17;;;;;;;48.57;18.27;;;;;;;-2.09;100.00;100030.31;5004682;28;20073;-69
2020/12/11 04:02:43;;;;;;;43.63;16.43;;;;;;;-2.12;100.00;100035.41;5009040;28;20392;-67
2020/12/11 04:05:10;;;;;;;44.93;17.00;;;;;;;-2.13;100.00;100033.66;5005163;28;20034;-67
2020/12/11 04:07:36;;;;;;;47.60;17.73;;;;;;;-2.09;100.00;100032.91;5010006;28;20038;-67
2020/12/11 04:10:02;;;;;;;40.30;16.57;;;;;;;-2.14;100.00;100032.78;5015842;28;20702;-67
2020/12/11 04:12:28;;;;;;;44.43;15.73;;;;;;;-2.15;100.00;100022.41;5041565;28;20030;-67
2020/12/11 04:14:55;;;;;;;45.23;20.03;;;;;;;-2.17;100.00;100024.97;5013186;28;20037;-68
2020/12/11 04:17:21;;;;;;;44.23;16.17;;;;;;;-2.16;100.00;100015.50;5020796;28;20109;-69
2020/12/11 04:19:47;;;;;;;42.17;17.23;;;;;;;-2.20;100.00;100019.72;5010781;28;20402;-69
2020/12/11 04:22:13;;;;;;;40.40;17.07;;;;;;;-2.20;100.00;100016.25;5017213;28;20046;-69
2020/12/11 04:24:39;;;;;;;45.27;16.53;;;;;;;-2.24;100.00;100020.53;5030729;28;20041;-69
2020/12/11 04:27:05;;;;;;;44.63;17.30;;;;;;;-2.26;100.00;100027.38;5026805;28;20100;-69
2020/12/11 04:29:32;;;;;;;39.53;16.53;;;;;;;-2.21;100.00;100022.28;5010130;28;20050;-69
2020/12/11 04:31:59;;;;;;;42.53;16.60;;;;;;;-2.11;100.00;100013.84;5009732;28;20491;-69
2020/12/11 04:34:26;;;;;;;45.20;16.80;;;;;;;-2.19;100.00;100012.84;4992837;28;20487;-69
2020/12/11 04:36:53;;;;;;;43.57;17.10;;;;;;;-2.22;100.00;100015.38;5019757;28;20510;-69
2020/12/11 04:39:20;;;;;;;48.83;19.10;;;;;;;-2.24;100.00;100012.75;5007828;28;20088;-69
2020/12/11 04:41:47;;;;;;;45.33;17.27;;;;;;;-2.21;100.00;100022.28;5008146;28;20116;-69
2020/12/11 04:44:13;;;;;;;41.90;18.13;;;;;;;-2.21;100.00;100027.47;5022375;28;20061;-69
2020/12/11 04:46:39;;;;;;;44.70;19.90;;;;;;;-2.22;100.00;100021.41;5009284;28;20034;-69
2020/12/11 04:49:06;;;;;;;38.93;16.63;;;;;;;-2.22;100.00;100017.97;5005864;28;20037;-69
2020/12/11 04:51:33;;;;;;;44.13;17.03;;;;;;;-2.24;100.00;100020.53;5015400;28;20107;-69
2020/12/11 04:54:00;;;;;;;38.60;16.20;;;;;;;-2.22;100.00;100010.19;5021334;28;20484;-69
2020/12/11 04:56:27;;;;;;;45.37;18.43;;;;;;;-2.24;100.00;100012.75;5007500;28;20061;-69
2020/12/11 04:58:55;;;;;;;49.43;20.23;;;;;;;-2.23;100.00;100014.50;5019101;28;20048;-69
2020/12/11 05:01:32;;;;;;;40.00;16.67;;;;;;;-2.23;100.00;100000.69;5009656;28;20046;-69
2020/12/11 05:04:01;;;;;;;45.47;16.83;;;;;;;-2.22;100.00;99994.66;5007750;28;20034;-69
2020/12/11 05:06:27;;;;;;;45.40;18.70;;;;;;;-2.21;100.00;99986.94;5007395;28;20068;-69
2020/12/11 05:09:16;;;;;;;45.87;17.67;;;;;;;-2.19;100.00;99984.38;5008354;28;20487;-69
2020/12/11 05:11:46;;;;;;;57.27;19.03;;;;;;;-2.20;100.00;99987.81;5003194;28;20491;-69
2020/12/11 05:14:27;;;;;;;47.37;18.60;;;;;;;-2.22;100.00;99984.31;5017748;28;20104;-69
2020/12/11 05:16:58;;;;;;;44.97;18.33;;;;;;;-2.24;100.00;99975.66;5006844;28;20037;-67
2020/12/11 05:19:24;;;;;;;36.30;16.97;;;;;;;-2.22;100.00;99979.16;5007495;28;20050;-67
2020/12/11 05:21:51;;;;;;;44.80;18.50;;;;;;;-2.19;100.00;99976.59;5009520;28;20042;-69
2020/12/11 05:24:17;;;;;;;48.30;18.23;;;;;;;-2.20;100.00;99974.88;5007755;28;20604;-69
2020/12/11 05:26:43;;;;;;;49.03;19.53;;;;;;;-2.18;100.00;99975.78;5007492;28;20069;-69
2020/12/11 05:29:09;;;;;;;55.03;19.90;;;;;;;-2.19;100.00;99974.88;5009015;28;20127;-69
2020/12/11 05:31:35;;;;;;;44.40;17.60;;;;;;;-2.22;100.00;99972.25;5007560;28;20527;-69
2020/12/11 05:34:13;;;;;;;42.90;18.37;;;;;;;-2.19;100.00;99974.88;5019919;28;20071;-69
2020/12/11 05:36:55;;;;;;;51.90;19.03;;;;;;;-2.19;100.00;99969.72;5027505;28;20042;-69
2020/12/11 05:39:24;;;;;;;47.20;17.70;;;;;;;-2.19;100.00;99954.19;5004636;28;20045;-69
2020/12/11 05:41:50;;;;;;;54.10;20.80;;;;;;;-2.16;100.00;99956.00;5007959;28;20041;-69
2020/12/11 05:44:26;;;;;;;41.73;18.40;;;;;;;-2.20;100.00;99957.63;5008248;28;20038;-70
2020/12/11 05:46:53;;;;;;;51.30;19.30;;;;;;;-2.18;100.00;99957.69;5006864;28;20104;-69
2020/12/11 05:49:24;;;;;;;48.87;19.30;;;;;;;-2.18;100.00;99949.91;5009684;28;20504;-70
2020/12/11 05:52:17;;;;;;;50.80;18.07;;;;;;;-2.21;100.00;99960.19;5017234;28;20462;-69
2020/12/11 05:54:48;;;;;;;50.77;20.20;;;;;;;-2.20;100.00;99955.03;4994459;28;20046;-69
2020/12/11 05:57:16;;;;;;;57.90;19.13;;;;;;;-2.21;100.00;99957.59;5015422;28;20038;-69
2020/12/11 05:59:43;;;;;;;61.90;22.00;;;;;;;-2.20;100.00;99934.34;5014914;28;20100;-69
2020/12/11 06:02:11;;;;;;;58.77;21.10;;;;;;;-2.22;100.00;99940.34;5017042;28;20045;-69
2020/12/11 06:04:38;;;;;;;50.07;19.30;;;;;;;-2.22;100.00;99936.03;5021915;28;20091;-69
2020/12/11 06:07:12;;;;;;;51.43;20.60;;;;;;;-2.23;100.00;99939.47;5023136;28;20072;-69
2020/12/11 06:09:40;;;;;;;51.53;18.80;;;;;;;-2.24;100.00;99945.50;5005662;28;20053;-69
2020/12/11 06:12:10;;;;;;;51.07;19.60;;;;;;;-2.23;100.00;99942.06;4989808;28;20112;-69
2020/12/11 06:14:39;;;;;;;49.70;20.37;;;;;;;-2.22;100.00;99950.69;4989858;28;20100;-69
2020/12/11 06:17:06;;;;;;;51.90;20.13;;;;;;;-2.23;100.00;99946.34;5000515;28;20046;-69
2020/12/11 06:19:35;;;;;;;47.93;18.40;;;;;;;-2.20;100.00;99951.59;4996558;28;20107;-69
2020/12/11 06:22:01;;;;;;;51.83;19.47;;;;;;;-2.20;100.00;99957.63;5008490;28;20038;-69
2020/12/11 06:24:31;;;;;;;47.17;20.07;;;;;;;-2.16;100.00;99951.69;5026314;28;20034;-69
2020/12/11 06:27:06;;;;;;;62.03;21.60;;;;;;;-2.17;100.00;99952.53;5007298;28;20414;-69
2020/12/11 06:29:40;;;;;;;47.07;19.00;;;;;;;-2.17;100.00;99956.84;5005440;28;20042;-69
2020/12/11 06:32:07;;;;;;;54.38;20.27;;;;;;;-2.18;100.00;99955.09;5012979;28;20522;-69
2020/12/11 06:34:33;;;;;;;55.73;21.20;;;;;;;-2.18;100.00;99957.69;5007806;28;20034;-69
2020/12/11 06:37:00;;;;;;;54.43;19.47;;;;;;;-2.16;100.00;99950.81;5007263;28;20053;-69
2020/12/11 06:39:43;;;;;;;54.73;21.07;;;;;;;-2.20;100.00;99951.59;4990439;28;20042;-69
2020/12/11 06:42:30;;;;;;;56.73;21.77;;;;;;;-2.20;100.00;99947.28;5007146;28;20507;-69
2020/12/11 06:45:18;;;;;;;58.33;21.97;;;;;;;-2.20;100.00;99952.44;5014209;22;20072;-68
2020/12/11 06:47:52;;;;;;;57.30;21.07;;;;;;;-2.17;100.00;99956.84;5007955;28;20065;-67
2020/12/11 06:50:20;;;;;;;55.33;21.00;;;;;;;-2.18;100.00;99955.09;5006529;28;20052;-68
2020/12/11 06:52:46;;;;;;;51.83;23.10;;;;;;;-2.18;100.00;99944.75;5008038;28;20104;-67
2020/12/11 06:55:13;;;;;;;58.07;20.40;;;;;;;-2.19;100.00;99938.66;4991290;28;20050;-68
2020/12/11 06:57:41;;;;;;;51.33;18.83;;;;;;;-2.18;100.00;99942.16;5006850;28;20088;-68
2020/12/11 07:00:28;;;;;;;52.60;20.33;;;;;;;-2.18;100.00;99943.03;5006770;28;20119;-68
2020/12/11 07:03:28;;;;;;;61.10;22.40;;;;;;;-2.16;100.00;99930.13;5024219;28;20095;-68
2020/12/11 07:06:05;;;;;;;54.93;21.53;;;;;;;-2.18;100.00;99930.09;4985689;28;20511;-68
2020/12/11 07:08:32;;;;;;;41.63;19.57;;;;;;;-2.17;100.00;99934.41;4994385;28;20065;-68
2020/12/11 07:11:02;;;;;;;48.53;19.07;;;;;;;-2.11;100.00;99938.81;5006552;28;20046;-68
2020/12/11 07:13:29;;;;;;;53.77;21.53;;;;;;;-2.14;100.00;99921.53;5007606;28;20072;-68
2020/12/11 07:15:59;;;;;;;62.67;21.20;;;;;;;-2.12;100.00;99926.72;5018920;28;20092;-67
2020/12/11 07:18:25;;;;;;;41.27;17.27;;;;;;;-2.14;100.00;99925.84;5022801;28;20495;-67
2020/12/11 07:20:54;;;;;;;49.90;20.27;;;;;;;-2.10;100.00;99917.25;5007415;28;20053;-67
2020/12/11 07:23:21;;;;;;;58.47;20.93;;;;;;;-2.13;100.00;99923.25;5006938;28;20088;-68
2020/12/11 07:25:49;;;;;;;48.53;19.90;;;;;;;-2.11;100.00;99916.41;5007074;28;20499;-67
2020/12/11 07:28:16;;;;;;;47.77;19.00;;;;;;;-2.09;100.00;99913.84;5006872;28;20042;-68
2020/12/11 07:30:43;;;;;;;50.80;20.67;;;;;;;-2.13;100.00;99910.31;5007349;28;20519;-68
2020/12/11 07:33:10;;;;;;;46.10;17.97;;;;;;;-2.10;100.00;99919.84;5022597;28;20034;-68
2020/12/11 07:35:43;;;;;;;52.87;19.77;;;;;;;-2.07;100.00;99912.16;5008475;28;20046;-66
2020/12/11 07:38:09;;;;;;;46.33;18.57;;;;;;;-1.93;100.00;99915.88;5019441;28;20054;-68
2020/12/11 07:40:35;;;;;;;51.50;18.50;;;;;;;-2.07;100.00;99910.44;5010504;28;20089;-66
2020/12/11 07:43:03;;;;;;;44.57;18.70;;;;;;;-2.06;100.00;99898.38;5011423;28;20069;-67
2020/12/11 07:45:33;;;;;;;42.63;18.17;;;;;;;-2.06;100.00;99908.72;5009962;28;20161;-67
2020/12/11 07:47:59;;;;;;;53.63;20.03;;;;;;;-2.01;100.00;99910.56;5011175;28;20100;-68
2020/12/11 07:50:27;;;;;;;46.57;18.97;;;;;;;-2.05;100.00;99902.69;5009953;28;20056;-68
2020/12/11 07:52:55;;;;;;;46.90;18.80;;;;;;;-2.03;100.00;99898.41;5010015;28;20041;-67
2020/12/11 07:55:24;;;;;;;46.23;19.20;;;;;;;-1.98;100.00;99902.84;5010118;28;20057;-68
2020/12/11 07:57:50;;;;;;;47.03;19.13;;;;;;;-1.93;100.00;99896.84;5011556;28;20045;-67
2020/12/11 08:00:17;;;;;;;52.17;20.47;;;;;;;-1.95;100.00;99909.78;5011008;28;20037;-67
2020/12/11 08:02:43;;;;;;;48.70;19.73;;;;;;;-1.91;100.00;99909.00;5026391;28;20421;-68
2020/12/11 08:05:10;;;;;;;46.57;19.77;;;;;;;-1.94;100.00;99908.94;5010144;28;20111;-68
2020/12/11 08:07:36;;;;;;;42.33;17.87;;;;;;;-1.93;100.00;99907.22;5010296;28;20049;-68
2020/12/11 08:10:13;;;;;;;44.00;17.53;;;;;;;-1.89;100.00;99911.63;5009523;28;20061;-68
2020/12/11 08:12:40;;;;;;;48.37;19.37;;;;;;;-1.90;100.00;99895.22;5009726;28;20399;-68
2020/12/11 08:15:07;;;;;;;63.97;24.07;;;;;;;-1.90;100.00;99897.81;5013809;28;20660;-68
2020/12/11 08:17:33;;;;;;;55.83;21.37;;;;;;;-1.87;100.00;99890.06;5009460;28;20068;-67
2020/12/11 08:20:02;;;;;;;50.57;18.67;;;;;;;-1.86;100.00;99880.59;5009082;28;20128;-67
2020/12/11 08:22:36;;;;;;;48.97;19.13;;;;;;;-1.80;100.00;99885.88;5009653;28;20046;-68
2020/12/11 08:25:21;;;;;;;48.63;18.33;;;;;;;-1.76;100.00;99888.56;5009334;28;20084;-68
2020/12/11 08:27:48;;;;;;;42.60;19.23;;;;;;;-1.77;100.00;99881.63;5021732;28;20430;-68
2020/12/11 08:30:15;;;;;;;46.00;18.40;;;;;;;-1.76;100.00;99885.97;5005884;28;20072;-66
2020/12/11 08:32:43;;;;;;;47.73;20.43;;;;;;;-1.70;100.00;99888.63;5000874;28;20092;-68
2020/12/11 08:35:21;;;;;;;43.53;15.97;;;;;;;-1.64;100.00;99879.25;5009669;28;20042;-67
2020/12/11 08:38:00;;;;;;;53.17;20.97;;;;;;;-1.58;100.00;99900.94;5010562;28;20046;-67
2020/12/11 08:40:28;;;;;;;44.33;18.30;;;;;;;-1.50;100.00;99903.66;5008956;28;20044;-68
2020/12/11 08:43:33;;;;;;;48.10;19.20;;;;;;;-1.55;100.00;99900.97;5009108;28;20486;-67
2020/12/11 08:49:03;;;;;;;51.37;19.40;;;;;;;-1.52;100.00;99906.19;5010453;28;20376;-67
2020/12/11 08:51:30;;;;;;;43.10;19.10;;;;;;;-1.57;100.00;99909.56;5014171;28;20397;-67
2020/12/11 08:53:57;;;;;;;46.53;18.90;;;;;;;-1.52;100.00;99913.09;5018174;28;20042;-67
2020/12/11 08:56:42;;;;;;;46.50;19.07;;;;;;;-1.46;100.00;99911.47;4996343;28;20076;-68
2020/12/11 08:59:08;;;;;;;39.43;17.67;;;;;;;-1.49;100.00;99908.84;5008849;28;20046;-67
2020/12/11 09:01:34;;;;;;;39.67;17.00;;;;;;;-1.47;100.00;99904.56;5012926;28;20392;-67
2020/12/11 09:04:00;;;;;;;43.27;19.47;;;;;;;-1.49;100.00;99902.78;5012395;28;20042;-68
2020/12/11 09:06:26;;;;;;;42.43;18.17;;;;;;;-1.49;100.00;99900.22;5012910;28;20046;-67
2020/12/11 09:08:52;;;;;;;44.53;17.57;;;;;;;-1.44;100.00;99898.53;5009425;28;20549;-68
2020/12/11 09:11:18;;;;;;;42.17;18.73;;;;;;;-1.45;100.00;99894.22;5009571;28;20498;-67
2020/12/11 09:13:45;;;;;;;43.30;17.53;;;;;;;-1.40;100.00;99897.75;5009977;28;20045;-67
2020/12/11 09:16:11;;;;;;;41.47;16.63;;;;;;;-1.35;100.00;99895.22;4998051;28;20042;-67
2020/12/11 09:18:37;;;;;;;39.63;15.57;;;;;;;-1.39;100.00;99885.66;5027844;28;20038;-68
2020/12/11 09:21:04;;;;;;;43.90;17.97;;;;;;;-1.34;100.00;99890.09;5011223;28;20046;-68
2020/12/11 09:23:30;;;;;;;41.70;17.60;;;;;;;-1.38;100.00;99890.88;5007905;28;20711;-68
2020/12/11 09:25:57;;;;;;;41.87;16.60;;;;;;;-1.44;100.00;99895.94;5009339;28;20100;-67
2020/12/11 09:28:24;;;;;;;36.90;15.90;;;;;;;-1.49;100.00;99887.25;5009412;28;20046;-67
2020/12/11 09:30:51;;;;;;;40.40;17.40;;;;;;;-1.48;100.00;99889.88;5007242;28;20049;-67
2020/12/11 09:33:20;;;;;;;42.93;17.00;;;;;;;-1.53;100.00;99882.84;5003237;28;20048;-68
2020/12/11 09:35:47;;;;;;;40.80;18.23;;;;;;;-1.55;100.00;99880.25;5009489;28;20045;-68
2020/12/11 09:38:14;;;;;;;39.43;17.43;;;;;;;-1.55;100.00;99881.97;5009023;28;20569;-67
2020/12/11 09:40:56;;;;;;;48.17;18.13;;;;;;;-1.58;100.00;99888.00;5007394;28;20041;-68
2020/12/11 09:43:54;;;;;;;35.93;16.20;;;;;;;-1.55;100.00;99876.78;5008154;28;20125;-68
2020/12/11 09:46:37;;;;;;;46.13;17.37;;;;;;;-1.48;100.00;99863.09;5000436;28;20042;-67
2020/12/11 09:49:12;;;;;;;43.73;18.63;;;;;;;-1.45;100.00;99869.19;5009507;28;20050;-68
2020/12/11 09:51:53;;;;;;;42.27;18.13;;;;;;;-1.42;100.00;99858.88;4995299;28;20073;-67
2020/12/11 09:54:32;;;;;;;38.40;16.80;;;;;;;-1.40;100.00;99870.97;5009474;28;20557;-68
2020/12/11 09:56:58;;;;;;;43.60;19.80;;;;;;;-1.36;100.00;99862.38;5009405;28;20042;-68
2020/12/11 10:00:10;;;;;;;42.40;17.07;;;;;;;-1.33;100.00;99863.31;5007573;28;20072;-68
2020/12/11 10:04:37;;;;;;;42.17;18.20;;;;;;;-1.43;100.00;99862.31;5008631;28;20037;-67
2020/12/11 10:07:03;;;;;;;40.67;17.37;;;;;;;-1.44;100.00;99851.91;5007516;28;20038;-67
2020/12/11 10:09:29;;;;;;;41.40;18.13;;;;;;;-1.44;100.00;99847.59;5008818;28;20038;-67
2020/12/11 10:11:56;;;;;;;43.10;18.23;;;;;;;-1.36;100.00;99847.72;4994901;28;20041;-68
2020/12/11 10:14:33;;;;;;;48.13;18.97;;;;;;;-1.35;100.00;99838.22;5007419;28;20041;-67
2020/12/11 10:17:00;;;;;;;43.37;17.07;;;;;;;-1.37;100.00;99830.44;4997719;28;20053;-68
2020/12/11 10:19:26;;;;;;;43.90;18.47;;;;;;;-1.33;100.00;99832.22;5007698;28;20107;-68
2020/12/11 10:21:53;;;;;;;47.27;17.67;;;;;;;-1.29;100.00;99828.81;5021968;28;20069;-68
2020/12/11 10:24:19;;;;;;;47.97;19.63;;;;;;;-1.33;100.00;99816.69;5007854;28;20537;-67
2020/12/11 10:26:46;;;;;;;51.83;20.00;;;;;;;-1.35;100.00;99815.78;5007635;28;20061;-67
2020/12/11 10:29:12;;;;;;;49.50;20.20;;;;;;;-1.34;100.00;99807.19;5008140;28;20042;-68
2020/12/11 10:31:44;;;;;;;51.77;21.60;;;;;;;-1.40;100.00;99813.97;4968100;28;20050;-68
2020/12/11 10:34:12;;;;;;;47.17;19.90;;;;;;;-1.37;100.00;99803.66;5006680;28;20034;-68
2020/12/11 10:36:38;;;;;;;43.27;19.57;;;;;;;-1.34;100.00;99801.13;5006607;28;20518;-67
2020/12/11 10:39:06;;;;;;;46.83;19.53;;;;;;;-1.33;100.00;99798.53;5004410;28;20411;-67
2020/12/11 10:41:32;;;;;;;44.50;19.60;;;;;;;-1.32;100.00;99804.59;5004429;28;20092;-68
2020/12/11 10:43:58;;;;;;;43.37;17.93;;;;;;;-1.28;100.00;99798.59;5016826;28;20566;-68
2020/12/11 10:46:24;;;;;;;54.13;21.17;;;;;;;-1.36;100.00;99797.63;4991675;28;20046;-67
2020/12/11 10:48:51;;;;;;;45.97;18.63;;;;;;;-1.33;100.00;99790.78;5005254;28;20399;-68
2020/12/11 10:51:18;;;;;;;42.17;19.10;;;;;;;-1.35;100.00;99791.59;4988707;28;20506;-68
2020/12/11 10:53:44;;;;;;;37.33;16.30;;;;;;;-1.30;100.00;99787.34;5005427;28;20034;-67
2020/12/11 10:56:12;;;;;;;48.53;18.70;;;;;;;-1.32;100.00;99784.75;5009212;28;20065;-68
2020/12/11 10:58:39;;;;;;;41.70;16.60;;;;;;;-1.30;100.00;99785.63;5018084;28;20091;-67
2020/12/11 11:01:07;;;;;;;46.07;16.87;;;;;;;-1.29;100.00;99778.72;5004704;28;20498;-68
2020/12/11 11:03:34;;;;;;;38.13;17.07;;;;;;;-1.27;100.00;99780.47;5005290;28;20062;-68
2020/12/11 11:06:09;;;;;;;43.10;17.80;;;;;;;-1.30;100.00;99772.66;5005513;28;20042;-68
2020/12/11 11:09:00;;;;;;;40.60;17.90;;;;;;;-1.26;100.00;99766.69;5002540;28;20063;-68
2020/12/11 11:11:34;;;;;;;45.57;20.27;;;;;;;-1.31;100.00;99757.09;5020005;28;20092;-67
2020/12/11 11:17:03;;;;;;;38.87;16.60;;;;;;;-1.50;100.00;99761.19;5009796;28;20092;-67
2020/12/11 11:22:28;;;;;;;40.33;18.57;;;;;;;-1.37;100.00;99757.88;5008247;28;20450;-67
2020/12/11 11:27:45;;;;;;;42.45;16.40;;;;;;;-1.35;100.00;99769.13;5009767;28;20065;-68